Time;durP1;ratioP1;P1;durP2;ratioP2;P2;SDS_P1;SDS_P2;PMS_P1;PMS_P2;Temp;Humidity;BMP_temperature;BMP_pressure;BME280_temperature;BME280_humidity;BME280_pressure;Samples;Min_cycle;Max_cycle;Signal;HPM_P1;HPM_P2
2021/01/14 00:01:37;;;;;;;4.03;2.88;;;;;;;;;;4990358;28;20381;-82
2021/01/14 00:04:03;;;;;;;8.93;3.90;;;;;;;;;;4991062;28;20364;-81
2021/01/14 00:06:29;;;;;;;5.53;3.75;;;;;;;;;;4991957;28;20365;-82
2021/01/14 00:08:55;;;;;;;5.68;3.70;;;;;;;;;;4991882;28;20361;-82
2021/01/14 00:11:21;;;;;;;5.85;3.65;;;;;;;;;;4991115;28;20368;-82
2021/01/14 00:13:47;;;;;;;12.17;3.87;;;;;;;;;;4989788;28;20377;-82
2021/01/14 00:16:13;;;;;;;9.55;4.72;;;;;;;;;;4991156;28;20396;-82
2021/01/14 00:18:39;;;;;;;7.10;4.80;;;;;;;;;;4991317;28;20365;-82
2021/01/14 00:21:05;;;;;;;10.48;4.72;;;;;;;;;;4991277;28;20357;-82
2021/01/14 00:23:31;;;;;;;9.73;5.13;;;;;;;;;;4989647;28;20397;-81
2021/01/14 00:25:57;;;;;;;7.57;4.90;;;;;;;;;;4991059;28;20423;-82
2021/01/14 00:28:23;;;;;;;6.75;4.63;;;;;;;;;;4991267;28;20417;-82
2021/01/14 00:30:49;;;;;;;7.18;4.95;;;;;;;;;;4990981;28;20396;-82
2021/01/14 00:33:15;;;;;;;9.52;4.97;;;;;;;;;;4990036;28;20381;-82
2021/01/14 00:35:42;;;;;;;7.72;4.30;;;;;;;;;;4990940;28;20978;-81
2021/01/14 00:38:08;;;;;;;7.43;4.63;;;;;;;;;;4989801;28;20493;-81
2021/01/14 00:40:34;;;;;;;6.93;4.20;;;;;;;;;;4989163;28;20435;-81
2021/01/14 00:43:04;;;;;;;5.95;4.63;;;;;;;;;;4990570;28;20365;-82
2021/01/14 00:45:31;;;;;;;8.18;4.85;;;;;;;;;;4989752;28;20369;-81
2021/01/14 00:47:58;;;;;;;6.60;4.03;;;;;;;;;;4990980;28;20372;-82
2021/01/14 00:50:25;;;;;;;6.47;3.97;;;;;;;;;;4990731;28;20395;-82
2021/01/14 00:52:51;;;;;;;5.57;3.78;;;;;;;;;;4990918;28;20364;-81
2021/01/14 00:55:18;;;;;;;4.55;3.40;;;;;;;;;;4990858;28;21195;-82
2021/01/14 00:57:44;;;;;;;4.97;3.63;;;;;;;;;;4990950;28;20373;-81
2021/01/14 01:00:12;;;;;;;4.60;3.37;;;;;;;;;;4991030;28;20728;-81
2021/01/14 01:02:42;;;;;;;5.18;3.40;;;;;;;;;;4990334;28;20741;-81
2021/01/14 01:05:09;;;;;;;5.25;3.60;;;;;;;;;;4990471;28;20384;-81
2021/01/14 01:07:35;;;;;;;4.78;3.75;;;;;;;;;;4990458;28;20419;-81
2021/01/14 01:10:01;;;;;;;5.05;3.58;;;;;;;;;;4989034;28;20376;-82
2021/01/14 01:12:27;;;;;;;5.82;3.72;;;;;;;;;;4989330;28;20720;-81
2021/01/14 01:14:53;;;;;;;4.20;3.50;;;;;;;;;;4990669;28;20369;-82
2021/01/14 01:17:19;;;;;;;3.25;2.80;;;;;;;;;;4990861;28;20393;-81
2021/01/14 01:19:45;;;;;;;3.80;2.60;;;;;;;;;;4990790;28;20361;-82
2021/01/14 01:22:11;;;;;;;4.77;2.67;;;;;;;;;;4990616;28;20785;-82
2021/01/14 01:24:37;;;;;;;2.75;2.30;;;;;;;;;;4989867;28;20413;-81
2021/01/14 01:27:03;;;;;;;2.78;2.58;;;;;;;;;;4993491;28;20736;-82
2021/01/14 01:29:29;;;;;;;3.50;2.70;;;;;;;;;;4992857;28;20389;-82
2021/01/14 01:31:55;;;;;;;2.73;2.53;;;;;;;;;;4994236;28;20372;-82
2021/01/14 01:34:21;;;;;;;2.55;2.28;;;;;;;;;;4994380;28;20852;-82
2021/01/14 01:36:51;;;;;;;3.30;2.60;;;;;;;;;;4994160;28;20396;-82
2021/01/14 01:39:17;;;;;;;2.55;2.35;;;;;;;;;;4992646;28;20467;-82
2021/01/14 01:41:45;;;;;;;2.58;2.38;;;;;;;;;;4994592;28;20365;-82
2021/01/14 01:44:11;;;;;;;2.50;2.20;;;;;;;;;;4992728;28;20377;-82
2021/01/14 01:46:37;;;;;;;2.40;2.20;;;;;;;;;;4993053;28;20431;-81
2021/01/14 01:49:03;;;;;;;2.33;2.13;;;;;;;;;;4994292;28;20436;-81
2021/01/14 01:51:34;;;;;;;2.38;2.17;;;;;;;;;;4992740;28;20868;-83
2021/01/14 01:54:00;;;;;;;2.30;2.10;;;;;;;;;;4994216;28;20408;-82
2021/01/14 01:56:26;;;;;;;2.47;2.27;;;;;;;;;;4992739;28;20810;-81
2021/01/14 01:58:56;;;;;;;2.90;2.70;;;;;;;;;;4992697;28;20387;-82
2021/01/14 02:01:23;;;;;;;2.97;2.35;;;;;;;;;;4994081;28;20370;-82
2021/01/14 02:03:49;;;;;;;2.70;2.50;;;;;;;;;;4993369;28;20392;-82
2021/01/14 02:06:15;;;;;;;3.73;2.60;;;;;;;;;;4993783;28;20720;-81
2021/01/14 02:08:41;;;;;;;2.47;2.28;;;;;;;;;;4994215;28;20459;-81
2021/01/14 02:11:13;;;;;;;2.50;2.30;;;;;;;;;;4991855;28;20393;-82
2021/01/14 02:13:55;;;;;;;2.38;2.00;;;;;;;;;;4991897;28;20740;-83
2021/01/14 02:16:22;;;;;;;2.20;2.00;;;;;;;;;;4993509;28;20926;-82
2021/01/14 02:18:48;;;;;;;3.28;2.40;;;;;;;;;;4993487;28;20462;-82
2021/01/14 02:21:15;;;;;;;2.40;2.20;;;;;;;;;;4992002;28;20507;-82
2021/01/14 02:23:48;;;;;;;3.40;2.30;;;;;;;;;;4993556;28;20369;-82
2021/01/14 02:26:17;;;;;;;2.40;2.05;;;;;;;;;;4992058;28;20432;-82
2021/01/14 02:28:46;;;;;;;2.10;1.95;;;;;;;;;;4993632;28;20946;-82
2021/01/14 02:31:13;;;;;;;3.30;2.50;;;;;;;;;;4992155;28;20439;-82
2021/01/14 02:33:39;;;;;;;3.20;2.83;;;;;;;;;;4993452;28;20469;-82
2021/01/14 02:36:05;;;;;;;3.22;2.70;;;;;;;;;;4991835;28;20397;-82
2021/01/14 02:38:31;;;;;;;4.10;3.05;;;;;;;;;;4993516;28;20389;-81
2021/01/14 02:40:58;;;;;;;2.78;2.50;;;;;;;;;;4991701;28;20639;-80
2021/01/14 02:43:24;;;;;;;3.20;2.90;;;;;;;;;;4992819;28;20396;-82
2021/01/14 02:45:50;;;;;;;3.33;2.90;;;;;;;;;;4992396;28;20396;-81
2021/01/14 02:48:18;;;;;;;3.15;2.40;;;;;;;;;;4992981;28;20372;-81
2021/01/14 02:50:45;;;;;;;3.88;2.60;;;;;;;;;;4991453;28;20462;-82
2021/01/14 02:53:13;;;;;;;3.10;2.80;;;;;;;;;;4991509;28;20495;-82
2021/01/14 02:55:40;;;;;;;3.97;2.97;;;;;;;;;;4992640;28;20369;-82
2021/01/14 02:58:06;;;;;;;3.55;3.00;;;;;;;;;;4992610;28;20476;-82
2021/01/14 03:00:33;;;;;;;4.43;3.13;;;;;;;;;;4993034;28;20368;-82
2021/01/14 03:02:59;;;;;;;3.70;3.40;;;;;;;;;;4992908;28;20365;-82
2021/01/14 03:05:25;;;;;;;3.77;2.93;;;;;;;;;;4991755;28;20885;-81
2021/01/14 03:07:51;;;;;;;4.80;3.60;;;;;;;;;;4991384;28;20373;-82
2021/01/14 03:10:17;;;;;;;4.45;3.30;;;;;;;;;;4992424;28;20418;-82
2021/01/14 03:12:43;;;;;;;3.90;3.15;;;;;;;;;;4991146;28;20376;-82
2021/01/14 03:15:10;;;;;;;4.10;3.20;;;;;;;;;;4991317;28;20456;-82
2021/01/14 03:17:36;;;;;;;4.55;3.10;;;;;;;;;;4992700;28;20420;-82
2021/01/14 03:20:04;;;;;;;4.68;3.20;;;;;;;;;;4990865;28;20741;-82
2021/01/14 03:22:30;;;;;;;5.25;3.17;;;;;;;;;;4992050;28;20412;-82
2021/01/14 03:24:56;;;;;;;4.32;3.33;;;;;;;;;;4990975;28;21141;-82
2021/01/14 03:27:22;;;;;;;4.55;3.08;;;;;;;;;;4992221;28;20383;-82
2021/01/14 03:29:48;;;;;;;3.83;2.95;;;;;;;;;;4992181;28;20361;-82
2021/01/14 03:32:14;;;;;;;3.63;2.97;;;;;;;;;;4991784;28;20430;-82
2021/01/14 03:34:40;;;;;;;4.87;3.10;;;;;;;;;;4990808;28;20380;-82
2021/01/14 03:37:06;;;;;;;3.85;2.90;;;;;;;;;;4990765;28;20744;-82
2021/01/14 03:39:32;;;;;;;4.28;3.53;;;;;;;;;;4994244;28;20395;-82
2021/01/14 03:41:59;;;;;;;4.97;3.50;;;;;;;;;;4993389;28;20736;-83
2021/01/14 03:44:25;;;;;;;5.43;3.80;;;;;;;;;;4992381;28;20376;-82
2021/01/14 03:46:51;;;;;;;4.93;3.67;;;;;;;;;;4992309;28;20372;-82
2021/01/14 03:49:18;;;;;;;5.60;3.92;;;;;;;;;;4989822;28;20380;-82
2021/01/14 03:51:46;;;;;;;6.20;4.15;;;;;;;;;;4992486;28;20460;-82
2021/01/14 03:54:12;;;;;;;6.07;4.43;;;;;;;;;;4992759;28;20370;-82
2021/01/14 03:56:39;;;;;;;5.75;4.07;;;;;;;;;;4991714;28;20435;-82
2021/01/14 03:59:05;;;;;;;8.18;4.68;;;;;;;;;;4992154;28;20373;-82
2021/01/14 04:01:32;;;;;;;5.90;4.43;;;;;;;;;;4992060;28;20361;-82
2021/01/14 04:03:58;;;;;;;6.55;4.55;;;;;;;;;;4990232;28;20385;-83
2021/01/14 04:06:34;;;;;;;6.43;4.60;;;;;;;;;;4990610;28;20408;-83
2021/01/14 04:09:01;;;;;;;6.13;4.63;;;;;;;;;;4990232;28;21118;-82
2021/01/14 04:11:27;;;;;;;7.55;4.80;;;;;;;;;;4992105;28;20368;-82
2021/01/14 04:13:53;;;;;;;6.90;4.55;;;;;;;;;;4992125;28;20456;-82
2021/01/14 04:16:19;;;;;;;7.10;5.40;;;;;;;;;;4991564;28;20393;-82
2021/01/14 04:18:45;;;;;;;7.47;5.43;;;;;;;;;;4991206;28;20375;-83
2021/01/14 04:21:13;;;;;;;7.45;6.07;;;;;;;;;;4991077;28;20361;-82
2021/01/14 04:23:39;;;;;;;8.90;5.88;;;;;;;;;;4989792;28;20918;-82
2021/01/14 04:26:05;;;;;;;8.63;6.05;;;;;;;;;;4991333;28;20376;-82
2021/01/14 04:28:31;;;;;;;9.23;6.13;;;;;;;;;;4989977;28;20372;-82
2021/01/14 04:30:57;;;;;;;9.32;6.47;;;;;;;;;;4989323;28;20377;-82
2021/01/14 04:33:23;;;;;;;9.73;6.72;;;;;;;;;;4991154;28;20393;-82
2021/01/14 04:35:51;;;;;;;10.05;6.50;;;;;;;;;;4989822;28;20405;-82
2021/01/14 04:38:17;;;;;;;10.93;6.75;;;;;;;;;;4989568;28;20408;-83
2021/01/14 04:40:44;;;;;;;8.35;6.38;;;;;;;;;;4989652;28;20376;-82
2021/01/14 04:43:11;;;;;;;7.70;5.68;;;;;;;;;;4991244;28;20393;-82
2021/01/14 04:45:39;;;;;;;7.60;5.53;;;;;;;;;;4990982;28;20371;-82
2021/01/14 04:48:05;;;;;;;6.25;5.38;;;;;;;;;;4991046;28;20769;-81
2021/01/14 04:50:32;;;;;;;6.38;4.75;;;;;;;;;;4989150;28;20476;-82
2021/01/14 04:53:00;;;;;;;7.82;4.97;;;;;;;;;;4990552;28;20373;-82
2021/01/14 04:55:28;;;;;;;6.57;5.03;;;;;;;;;;4989981;28;20373;-81
2021/01/14 04:57:55;;;;;;;5.82;4.80;;;;;;;;;;4989844;28;20403;-81
2021/01/14 05:00:24;;;;;;;7.22;5.35;;;;;;;;;;4990918;28;20371;-82
2021/01/14 05:02:50;;;;;;;6.07;5.07;;;;;;;;;;4994889;28;20372;-82
2021/01/14 05:05:17;;;;;;;6.30;5.15;;;;;;;;;;4993863;28;20392;-81
2021/01/14 05:07:47;;;;;;;6.00;5.28;;;;;;;;;;4993697;28;20459;-82
2021/01/14 05:10:14;;;;;;;5.93;5.13;;;;;;;;;;4994748;28;20420;-81
2021/01/14 05:12:42;;;;;;;5.93;5.32;;;;;;;;;;4993444;28;20427;-81
2021/01/14 05:15:08;;;;;;;6.28;5.53;;;;;;;;;;4994723;28;20840;-82
2021/01/14 05:17:34;;;;;;;7.10;5.38;;;;;;;;;;4994597;28;20428;-82
2021/01/14 05:20:00;;;;;;;6.03;5.40;;;;;;;;;;4993255;28;20877;-82
2021/01/14 05:22:26;;;;;;;7.35;5.50;;;;;;;;;;4994527;28;20431;-82
2021/01/14 05:25:05;;;;;;;6.30;5.40;;;;;;;;;;4994645;28;20372;-81
2021/01/14 05:27:31;;;;;;;6.05;5.43;;;;;;;;;;4994610;28;20400;-81
2021/01/14 05:30:03;;;;;;;7.35;6.00;;;;;;;;;;4993994;28;20373;-82
2021/01/14 05:32:39;;;;;;;8.07;5.87;;;;;;;;;;4994549;28;20469;-82
2021/01/14 05:35:06;;;;;;;7.40;5.82;;;;;;;;;;4993331;28;20404;-81
2021/01/14 05:37:33;;;;;;;7.80;6.00;;;;;;;;;;5002904;28;20395;-83
2021/01/14 05:39:59;;;;;;;6.82;6.05;;;;;;;;;;5012391;28;20935;-83
2021/01/14 05:42:26;;;;;;;7.03;6.00;;;;;;;;;;5013436;28;20385;-84
2021/01/14 05:44:51;;;;;;;8.20;6.90;;;;;;;;;;5013102;28;20880;-84
2021/01/14 05:47:21;;;;;;;6.90;6.00;;;;;;;;;;5014323;28;20367;-81
2021/01/14 05:49:56;;;;;;;7.57;6.35;;;;;;;;;;5013395;28;20415;-84
2021/01/14 05:52:24;;;;;;;7.63;6.82;;;;;;;;;;5013760;28;20379;-85
2021/01/14 05:55:00;;;;;;;8.93;7.28;;;;;;;;;;5012035;28;20375;-85
2021/01/14 05:57:31;;;;;;;7.60;6.50;;;;;;;;;;4996171;28;20409;-86
2021/01/14 05:59:58;;;;;;;8.15;6.47;;;;;;;;;;5012101;28;20380;-84
2021/01/14 06:02:28;;;;;;;9.23;7.60;;;;;;;;;;5013391;28;20368;-82
2021/01/14 06:04:54;;;;;;;9.23;7.40;;;;;;;;;;5013331;28;20449;-86
2021/01/14 06:07:20;;;;;;;7.88;7.05;;;;;;;;;;5013675;28;20379;-84
2021/01/14 06:09:48;;;;;;;9.60;7.32;;;;;;;;;;5012379;28;20386;-84
2021/01/14 06:12:15;;;;;;;8.15;7.30;;;;;;;;;;4991696;28;21668;-83
2021/01/14 06:14:41;;;;;;;9.68;7.53;;;;;;;;;;5011215;28;20386;-84
2021/01/14 06:17:08;;;;;;;10.50;7.60;;;;;;;;;;4994819;28;20409;-84
2021/01/14 06:19:34;;;;;;;11.68;8.18;;;;;;;;;;5011334;28;20375;-82
2021/01/14 06:22:01;;;;;;;11.85;8.63;;;;;;;;;;5011351;28;20370;-84
2021/01/14 06:24:30;;;;;;;11.02;8.38;;;;;;;;;;4995159;28;20383;-82
2021/01/14 06:27:09;;;;;;;12.10;9.15;;;;;;;;;;5012419;28;20874;-83
2021/01/14 06:29:38;;;;;;;11.60;8.73;;;;;;;;;;5010586;28;20716;-83
2021/01/14 06:32:14;;;;;;;11.73;9.10;;;;;;;;;;5012553;28;20434;-83
2021/01/14 06:34:42;;;;;;;12.95;10.40;;;;;;;;;;5011348;28;20407;-83
2021/01/14 06:37:10;;;;;;;12.05;9.77;;;;;;;;;;5012996;28;20488;-83
2021/01/14 06:39:38;;;;;;;13.55;9.98;;;;;;;;;;5012520;28;20423;-81
2021/01/14 06:42:23;;;;;;;12.10;10.65;;;;;;;;;;4995208;28;20379;-83
2021/01/14 06:44:58;;;;;;;14.98;11.40;;;;;;;;;;5011561;28;20391;-83
2021/01/14 06:47:37;;;;;;;14.32;12.27;;;;;;;;;;5011660;28;20382;-82
2021/01/14 06:50:18;;;;;;;14.13;11.70;;;;;;;;;;5010995;28;20383;-82
2021/01/14 06:52:50;;;;;;;14.63;11.25;;;;;;;;;;5012599;28;20897;-82
2021/01/14 06:55:16;;;;;;;16.63;11.32;;;;;;;;;;5012580;28;20375;-82
2021/01/14 06:57:42;;;;;;;12.73;11.27;;;;;;;;;;5012956;28;20858;-82
2021/01/14 07:00:11;;;;;;;13.10;10.82;;;;;;;;;;5012395;28;20383;-82
2021/01/14 07:02:37;;;;;;;13.88;11.00;;;;;;;;;;5010983;28;20410;-81
2021/01/14 07:05:05;;;;;;;12.70;10.00;;;;;;;;;;5012860;28;20822;-82
2021/01/14 07:07:48;;;;;;;14.82;10.82;;;;;;;;;;5012320;28;20383;-83
2021/01/14 07:10:15;;;;;;;13.43;10.73;;;;;;;;;;5011120;28;20470;-84
2021/01/14 07:12:42;;;;;;;13.73;10.52;;;;;;;;;;5012133;28;20438;-82
2021/01/14 07:15:11;;;;;;;15.35;10.32;;;;;;;;;;5011114;28;20893;-83
2021/01/14 07:17:40;;;;;;;16.17;9.93;;;;;;;;;;5012138;28;20759;-83
2021/01/14 07:20:10;;;;;;;12.80;9.00;;;;;;;;;;5011615;28;20455;-82
2021/01/14 07:22:50;;;;;;;14.85;9.20;;;;;;;;;;5012314;28;20360;-82
2021/01/14 07:25:17;;;;;;;12.73;8.45;;;;;;;;;;5012533;28;20445;-82
2021/01/14 07:27:43;;;;;;;15.48;7.70;;;;;;;;;;5012332;28;20363;-83
2021/01/14 07:30:11;;;;;;;13.80;7.70;;;;;;;;;;5009686;28;20411;-82
2021/01/14 07:32:52;;;;;;;10.10;7.80;;;;;;;;;;5011228;28;20379;-82
2021/01/14 07:35:36;;;;;;;11.97;7.43;;;;;;;;;;5013598;28;20430;-83
2021/01/14 07:38:04;;;;;;;13.68;7.32;;;;;;;;;;5014258;28;20448;-83
2021/01/14 07:40:34;;;;;;;14.75;8.40;;;;;;;;;;5011415;28;20368;-83
2021/01/14 07:43:05;;;;;;;12.57;6.70;;;;;;;;;;5009859;28;20454;-83
2021/01/14 07:45:31;;;;;;;15.00;6.93;;;;;;;;;;5011219;28;20367;-83
2021/01/14 07:48:16;;;;;;;11.35;6.45;;;;;;;;;;5011664;28;20446;-82
2021/01/14 07:50:52;;;;;;;10.50;6.20;;;;;;;;;;5011112;28;20377;-83
2021/01/14 07:53:19;;;;;;;12.18;6.07;;;;;;;;;;5004071;28;20387;-83
2021/01/14 07:55:45;;;;;;;13.47;6.33;;;;;;;;;;5011154;28;20373;-83
2021/01/14 07:58:20;;;;;;;12.57;6.20;;;;;;;;;;5010983;28;20371;-83
2021/01/14 08:01:00;;;;;;;11.13;6.15;;;;;;;;;;5009771;28;20383;-84
2021/01/14 08:03:30;;;;;;;10.15;5.50;;;;;;;;;;5010995;28;20402;-81
2021/01/14 08:06:02;;;;;;;13.13;5.47;;;;;;;;;;5009316;28;20723;-79
2021/01/14 08:08:32;;;;;;;10.55;5.20;;;;;;;;;;5009207;28;20383;-78
2021/01/14 08:11:10;;;;;;;7.43;4.73;;;;;;;;;;5010884;28;20422;-79
2021/01/14 08:13:55;;;;;;;11.50;5.30;;;;;;;;;;5011338;28;20707;-82
2021/01/14 08:16:37;;;;;;;10.48;5.32;;;;;;;;;;5002126;28;20407;-82
2021/01/14 08:19:16;;;;;;;9.57;5.30;;;;;;;;;;4984145;28;20387;-82
2021/01/14 08:21:43;;;;;;;8.65;4.57;;;;;;;;;;5009470;28;20414;-83
2021/01/14 08:24:09;;;;;;;10.80;5.10;;;;;;;;;;5008786;28;20387;-82
2021/01/14 08:26:55;;;;;;;8.85;5.18;;;;;;;;;;5009748;28;20371;-83
2021/01/14 08:29:28;;;;;;;8.43;4.87;;;;;;;;;;4995597;28;20483;-83
2021/01/14 08:31:54;;;;;;;7.63;4.53;;;;;;;;;;5010160;28;20375;-83
2021/01/14 08:34:21;;;;;;;10.13;5.05;;;;;;;;;;5009189;28;20379;-81
2021/01/14 08:36:48;;;;;;;7.65;4.35;;;;;;;;;;5010329;28;20391;-81
2021/01/14 08:39:18;;;;;;;7.23;4.00;;;;;;;;;;4991300;28;20403;-81
2021/01/14 08:41:44;;;;;;;6.45;4.10;;;;;;;;;;5009053;28;20795;-81
2021/01/14 08:44:11;;;;;;;6.88;3.97;;;;;;;;;;5010883;28;20375;-80
2021/01/14 08:46:38;;;;;;;7.70;4.60;;;;;;;;;;5010958;28;20462;-87
2021/01/14 08:49:18;;;;;;;9.70;6.30;;;;;;;;;;5013209;28;20387;-87
2021/01/14 08:51:44;;;;;;;7.50;6.25;;;;;;;;;;5013453;28;20440;-88
2021/01/14 08:54:15;;;;;;;9.10;5.22;;;;;;;;;;5010765;28;20791;-85
2021/01/14 08:56:41;;;;;;;9.52;4.75;;;;;;;;;;5006989;28;20786;-86
2021/01/14 08:59:16;;;;;;;9.77;6.35;;;;;;;;;;5008675;28;20478;-84
2021/01/14 09:01:42;;;;;;;7.05;5.18;;;;;;;;;;5010882;28;20387;-84
2021/01/14 09:04:09;;;;;;;7.83;5.40;;;;;;;;;;4992627;28;20415;-87
2021/01/14 09:06:39;;;;;;;7.13;5.65;;;;;;;;;;5009790;28;20870;-84
2021/01/14 09:09:09;;;;;;;8.45;5.88;;;;;;;;;;5010008;28;20378;-86
2021/01/14 09:11:36;;;;;;;9.02;6.97;;;;;;;;;;5010570;28;20386;-87
2021/01/14 09:14:05;;;;;;;8.43;6.70;;;;;;;;;;5010162;28;20375;-86
2021/01/14 09:16:31;;;;;;;10.03;7.17;;;;;;;;;;5010081;28;20465;-86
2021/01/14 09:18:57;;;;;;;8.50;7.28;;;;;;;;;;5008396;28;20809;-83
2021/01/14 09:21:23;;;;;;;10.02;7.72;;;;;;;;;;5009618;28;20982;-85
2021/01/14 09:23:49;;;;;;;11.27;8.25;;;;;;;;;;5009031;28;20972;-85
2021/01/14 09:26:23;;;;;;;11.00;8.90;;;;;;;;;;5008827;28;20386;-86
2021/01/14 09:28:50;;;;;;;12.10;9.97;;;;;;;;;;5009850;28;20398;-83
2021/01/14 09:31:16;;;;;;;11.25;9.52;;;;;;;;;;5008214;28;20379;-85
2021/01/14 09:33:43;;;;;;;10.90;9.63;;;;;;;;;;5009628;28;20378;-85
2021/01/14 09:36:16;;;;;;;11.75;9.32;;;;;;;;;;5009708;28;20409;-85
2021/01/14 09:38:46;;;;;;;12.48;10.20;;;;;;;;;;5003864;28;20415;-86
2021/01/14 09:41:12;;;;;;;14.67;10.70;;;;;;;;;;5008377;28;20789;-86
2021/01/14 09:43:42;;;;;;;13.13;11.13;;;;;;;;;;5010317;28;20646;-84
2021/01/14 09:46:12;;;;;;;14.20;11.52;;;;;;;;;;5009141;28;21158;-86
2021/01/14 09:48:38;;;;;;;15.65;11.88;;;;;;;;;;5012983;28;20378;-85
2021/01/14 09:51:08;;;;;;;14.25;12.00;;;;;;;;;;5012724;28;20419;-85
2021/01/14 09:53:34;;;;;;;15.38;12.65;;;;;;;;;;5000024;28;20858;-86
2021/01/14 09:56:02;;;;;;;14.93;12.00;;;;;;;;;;5009571;28;20877;-85
2021/01/14 09:58:29;;;;;;;14.45;12.10;;;;;;;;;;5011199;28;20375;-84
2021/01/14 10:00:56;;;;;;;14.85;12.10;;;;;;;;;;5011205;28;20450;-86
2021/01/14 10:03:23;;;;;;;14.07;11.60;;;;;;;;;;5007586;28;21126;-84
2021/01/14 10:05:50;;;;;;;13.27;11.43;;;;;;;;;;5002749;28;20377;-85
2021/01/14 10:08:22;;;;;;;14.95;11.68;;;;;;;;;;5012549;28;20430;-85
2021/01/14 10:10:49;;;;;;;15.35;11.38;;;;;;;;;;4996299;28;20376;-85
2021/01/14 10:13:15;;;;;;;14.77;11.48;;;;;;;;;;5003669;28;20375;-85
2021/01/14 10:15:42;;;;;;;16.35;11.43;;;;;;;;;;5011496;28;20410;-85
2021/01/14 10:18:08;;;;;;;12.90;10.90;;;;;;;;;;5013059;28;20410;-85
2021/01/14 10:20:34;;;;;;;13.25;11.27;;;;;;;;;;5011248;28;20379;-85
2021/01/14 10:23:00;;;;;;;13.75;11.45;;;;;;;;;;5010945;28;20371;-86
2021/01/14 10:25:26;;;;;;;13.15;11.73;;;;;;;;;;5012859;28;20371;-84
2021/01/14 10:28:03;;;;;;;14.07;12.00;;;;;;;;;;5012618;28;20893;-84
2021/01/14 10:30:29;;;;;;;14.52;12.27;;;;;;;;;;5011293;28;20383;-85
2021/01/14 10:33:05;;;;;;;15.50;12.23;;;;;;;;;;5012341;28;20755;-85
2021/01/14 10:35:32;;;;;;;15.67;12.37;;;;;;;;;;5012407;28;20379;-82
2021/01/14 10:38:14;;;;;;;14.90;11.65;;;;;;;;;;5012634;28;20465;-85
2021/01/14 10:40:41;;;;;;;12.57;11.15;;;;;;;;;;5002893;28;20377;-84
2021/01/14 10:43:08;;;;;;;13.13;11.43;;;;;;;;;;4993719;28;20417;-85
2021/01/14 10:45:35;;;;;;;13.88;11.10;;;;;;;;;;4992406;28;20376;-83
2021/01/14 10:48:08;;;;;;;13.07;10.90;;;;;;;;;;4992098;28;20373;-85
2021/01/14 10:50:41;;;;;;;13.32;10.88;;;;;;;;;;4993297;28;20717;-84
2021/01/14 10:53:07;;;;;;;12.35;10.88;;;;;;;;;;5002360;28;20936;-85
2021/01/14 10:55:33;;;;;;;12.60;11.25;;;;;;;;;;4998808;28;20912;-86
2021/01/14 10:58:00;;;;;;;14.20;11.20;;;;;;;;;;5000897;28;20397;-86
2021/01/14 11:00:36;;;;;;;13.38;11.43;;;;;;;;;;5002267;28;20843;-85
2021/01/14 11:03:05;;;;;;;12.15;10.82;;;;;;;;;;4994699;28;20911;-86
2021/01/14 11:05:40;;;;;;;13.63;11.30;;;;;;;;;;5000130;28;20377;-86
2021/01/14 11:08:11;;;;;;;12.73;11.00;;;;;;;;;;4998280;28;20860;-86
2021/01/14 11:10:37;;;;;;;12.38;11.00;;;;;;;;;;4991263;28;20456;-87
2021/01/14 11:13:08;;;;;;;10.93;9.82;;;;;;;;;;4992102;28;20800;-81
2021/01/14 11:15:34;;;;;;;10.80;9.35;;;;;;;;;;4991106;28;20369;-86
2021/01/14 11:18:00;;;;;;;12.02;9.48;;;;;;;;;;4993678;28;20419;-87
2021/01/14 11:20:26;;;;;;;11.38;9.65;;;;;;;;;;4993192;28;20400;-86
2021/01/14 11:22:52;;;;;;;12.15;10.40;;;;;;;;;;4992637;28;20367;-87
2021/01/14 11:25:18;;;;;;;11.45;10.02;;;;;;;;;;4992682;28;20369;-87
2021/01/14 11:27:44;;;;;;;11.95;9.45;;;;;;;;;;4993779;28;20788;-85
2021/01/14 11:30:10;;;;;;;11.07;9.07;;;;;;;;;;4990807;28;20384;-84
2021/01/14 11:32:36;;;;;;;11.07;9.13;;;;;;;;;;4992666;28;20377;-87
2021/01/14 11:35:03;;;;;;;10.77;9.63;;;;;;;;;;4992345;28;20452;-87
2021/01/14 11:37:29;;;;;;;9.82;8.82;;;;;;;;;;4991225;28;20404;-88
2021/01/14 11:39:54;;;;;;;11.30;9.70;;;;;;;;;;4991391;28;20786;-88
2021/01/14 11:42:20;;;;;;;10.18;9.18;;;;;;;;;;4994808;28;20369;-87
2021/01/14 11:44:46;;;;;;;10.70;9.30;;;;;;;;;;4993096;28;20431;-90
2021/01/14 11:47:12;;;;;;;10.98;9.25;;;;;;;;;;4991758;28;20894;-82
2021/01/14 11:49:38;;;;;;;11.30;9.05;;;;;;;;;;4993229;28;20760;-86
2021/01/14 11:52:04;;;;;;;10.30;8.88;;;;;;;;;;4994668;28;20883;-86
2021/01/14 11:54:30;;;;;;;10.47;8.93;;;;;;;;;;5003122;28;20734;-88
2021/01/14 11:56:58;;;;;;;10.70;8.68;;;;;;;;;;5018895;28;20399;-86
2021/01/14 11:59:24;;;;;;;10.43;8.67;;;;;;;;;;5018223;28;20363;-87
2021/01/14 12:01:51;;;;;;;10.20;9.10;;;;;;;;;;5016783;28;20355;-89
2021/01/14 12:04:17;;;;;;;9.30;8.10;;;;;;;;;;5015754;28;20417;-88
2021/01/14 12:06:43;;;;;;;9.90;8.40;;;;;;;;;;5013345;28;20371;-89
2021/01/14 12:09:09;;;;;;;9.77;8.40;;;;;;;;;;4993446;28;20416;-89
2021/01/14 12:11:35;;;;;;;11.82;8.57;;;;;;;;;;4994215;28;20788;-89
2021/01/14 12:14:01;;;;;;;11.68;8.88;;;;;;;;;;4994055;28;20381;-88
2021/01/14 12:16:27;;;;;;;10.38;8.48;;;;;;;;;;4994109;28;20392;-88
2021/01/14 12:18:53;;;;;;;11.32;8.65;;;;;;;;;;4994449;28;20373;-90
2021/01/14 12:21:19;;;;;;;10.52;8.90;;;;;;;;;;4993756;28;20385;-89
2021/01/14 12:23:45;;;;;;;10.77;9.20;;;;;;;;;;5004327;28;20418;-88
2021/01/14 12:26:12;;;;;;;10.68;9.48;;;;;;;;;;5012404;28;20379;-89
2021/01/14 12:28:37;;;;;;;11.57;9.57;;;;;;;;;;5012961;28;20371;-88
2021/01/14 12:31:04;;;;;;;11.85;9.52;;;;;;;;;;5013159;28;20374;-85
2021/01/14 12:33:30;;;;;;;11.27;9.55;;;;;;;;;;5013530;28;20386;-85
2021/01/14 12:35:56;;;;;;;10.55;9.45;;;;;;;;;;5014244;28;20838;-88
2021/01/14 12:38:21;;;;;;;12.47;9.97;;;;;;;;;;5004572;28;20804;-89
2021/01/14 12:40:47;;;;;;;11.10;9.80;;;;;;;;;;4997851;28;20365;-84
2021/01/14 12:43:14;;;;;;;13.32;10.45;;;;;;;;;;4993522;28;20763;-82
2021/01/14 12:45:40;;;;;;;12.95;9.90;;;;;;;;;;5012857;28;20402;-83
2021/01/14 12:48:06;;;;;;;12.30;11.00;;;;;;;;;;5012519;28;20363;-79
2021/01/14 12:50:32;;;;;;;12.85;11.23;;;;;;;;;;5011737;28;20374;-78
2021/01/14 12:52:58;;;;;;;12.73;11.27;;;;;;;;;;5011388;28;20374;-88
2021/01/14 12:55:24;;;;;;;12.85;11.45;;;;;;;;;;5011496;28;20410;-81
2021/01/14 12:57:50;;;;;;;12.05;10.65;;;;;;;;;;5009527;28;20399;-80
2021/01/14 13:00:16;;;;;;;11.77;10.32;;;;;;;;;;5010367;28;20425;-83
2021/01/14 13:02:42;;;;;;;13.52;11.70;;;;;;;;;;5010656;28;20402;-83
2021/01/14 13:05:09;;;;;;;13.53;11.53;;;;;;;;;;5010637;28;20826;-80
2021/01/14 13:07:35;;;;;;;12.52;11.00;;;;;;;;;;5010540;28;20856;-80
2021/01/14 13:10:01;;;;;;;15.27;11.70;;;;;;;;;;5010094;28;20368;-78
2021/01/14 13:12:27;;;;;;;13.02;11.57;;;;;;;;;;5009866;28;20367;-80
2021/01/14 13:14:53;;;;;;;14.63;11.63;;;;;;;;;;5009400;28;20719;-81
2021/01/14 13:17:19;;;;;;;13.82;11.82;;;;;;;;;;5010711;28;20486;-80
2021/01/14 13:19:45;;;;;;;14.25;11.82;;;;;;;;;;5009925;28;20384;-81
2021/01/14 13:22:12;;;;;;;13.20;11.80;;;;;;;;;;4993662;28;20369;-81
2021/01/14 13:24:39;;;;;;;13.63;12.10;;;;;;;;;;5008560;28;20452;-81
2021/01/14 13:27:05;;;;;;;15.45;12.95;;;;;;;;;;5007935;28;20764;-82
2021/01/14 13:29:31;;;;;;;14.30;12.43;;;;;;;;;;4993084;28;20376;-80
2021/01/14 13:31:57;;;;;;;14.88;13.10;;;;;;;;;;5003692;28;20461;-81
2021/01/14 13:34:23;;;;;;;14.02;12.52;;;;;;;;;;5013128;28;20363;-80
2021/01/14 13:36:50;;;;;;;14.30;12.63;;;;;;;;;;5012097;28;20399;-83
2021/01/14 13:39:17;;;;;;;14.10;12.60;;;;;;;;;;4997920;28;20902;-80
2021/01/14 13:41:47;;;;;;;15.18;13.57;;;;;;;;;;5013428;28;20456;-80
2021/01/14 13:44:13;;;;;;;15.23;13.20;;;;;;;;;;5013980;28;20367;-81
2021/01/14 13:46:39;;;;;;;14.98;12.48;;;;;;;;;;5013539;28;20394;-80
2021/01/14 13:49:06;;;;;;;15.05;12.30;;;;;;;;;;5013135;28;20849;-82
2021/01/14 13:51:32;;;;;;;13.18;11.75;;;;;;;;;;5013914;28;20371;-79
2021/01/14 13:53:59;;;;;;;14.07;12.55;;;;;;;;;;5012995;28;20364;-81
2021/01/14 13:56:25;;;;;;;13.75;12.35;;;;;;;;;;4996184;28;20804;-82
2021/01/14 13:58:51;;;;;;;12.57;11.13;;;;;;;;;;5006056;28;20720;-84
2021/01/14 14:01:24;;;;;;;13.73;11.45;;;;;;;;;;5011805;28;20850;-84
2021/01/14 14:03:50;;;;;;;13.00;11.30;;;;;;;;;;5012547;28;20382;-83
2021/01/14 14:06:16;;;;;;;13.90;10.93;;;;;;;;;;5013848;28;20367;-84
2021/01/14 14:08:42;;;;;;;12.75;11.48;;;;;;;;;;5013574;28;20355;-84
2021/01/14 14:11:08;;;;;;;13.48;11.30;;;;;;;;;;5012194;28;20399;-83
2021/01/14 14:13:34;;;;;;;13.80;11.45;;;;;;;;;;5013555;28;20399;-84
2021/01/14 14:16:01;;;;;;;14.97;12.27;;;;;;;;;;5015306;28;20364;-83
2021/01/14 14:18:29;;;;;;;14.55;12.02;;;;;;;;;;5014014;28;20714;-83
2021/01/14 14:20:58;;;;;;;14.18;11.63;;;;;;;;;;5013000;28;20371;-84
2021/01/14 14:23:24;;;;;;;14.25;12.25;;;;;;;;;;5012814;28;20367;-85
2021/01/14 14:25:52;;;;;;;13.83;12.30;;;;;;;;;;5013881;28;20368;-83
2021/01/14 14:28:18;;;;;;;14.05;12.55;;;;;;;;;;5012254;28;20379;-85
2021/01/14 14:30:44;;;;;;;14.05;12.05;;;;;;;;;;5018939;28;20374;-90
2021/01/14 14:33:10;;;;;;;14.18;12.30;;;;;;;;;;5021760;28;20367;-84
2021/01/14 14:35:36;;;;;;;13.75;12.35;;;;;;;;;;5013929;28;20477;-83
2021/01/14 14:38:02;;;;;;;15.05;12.70;;;;;;;;;;5011542;28;20411;-84